sensor_id;sensor_type;location;lat;lon;timestamp;temperature;humidity
7666;DHT22;3875;46.562;4.898;2023-04-24T00:02:23;12.10;93.20
7666;DHT22;3875;46.562;4.898;2023-04-24T00:04:49;12.20;92.70
7666;DHT22;3875;46.562;4.898;2023-04-24T00:07:15;12.20;92.70
7666;DHT22;3875;46.562;4.898;2023-04-24T00:09:45;12.20;92.80
7666;DHT22;3875;46.562;4.898;2023-04-24T00:12:11;12.20;92.80
7666;DHT22;3875;46.562;4.898;2023-04-24T00:14:36;12.20;92.80
7666;DHT22;3875;46.562;4.898;2023-04-24T00:17:02;12.20;92.80
7666;DHT22;3875;46.562;4.898;2023-04-24T00:19:29;12.20;92.80
7666;DHT22;3875;46.562;4.898;2023-04-24T00:21:54;12.20;92.90
7666;DHT22;3875;46.562;4.898;2023-04-24T00:24:20;12.10;92.90
7666;DHT22;3875;46.562;4.898;2023-04-24T00:26:46;12.10;92.90
7666;DHT22;3875;46.562;4.898;2023-04-24T00:29:12;12.10;93.10
7666;DHT22;3875;46.562;4.898;2023-04-24T00:31:38;12.20;92.90
7666;DHT22;3875;46.562;4.898;2023-04-24T00:34:04;12.20;92.90
7666;DHT22;3875;46.562;4.898;2023-04-24T00:36:30;12.20;92.80
7666;DHT22;3875;46.562;4.898;2023-04-24T00:38:56;12.20;92.70
7666;DHT22;3875;46.562;4.898;2023-04-24T00:41:22;12.20;92.80
7666;DHT22;3875;46.562;4.898;2023-04-24T00:43:50;12.20;92.70
7666;DHT22;3875;46.562;4.898;2023-04-24T00:46:16;12.20;92.40
7666;DHT22;3875;46.562;4.898;2023-04-24T00:48:43;12.20;92.70
7666;DHT22;3875;46.562;4.898;2023-04-24T00:51:09;12.20;92.60
7666;DHT22;3875;46.562;4.898;2023-04-24T00:53:35;12.20;92.80
7666;DHT22;3875;46.562;4.898;2023-04-24T00:56:02;12.20;92.70
7666;DHT22;3875;46.562;4.898;2023-04-24T00:58:28;12.20;92.90
7666;DHT22;3875;46.562;4.898;2023-04-24T01:00:54;12.20;92.90
7666;DHT22;3875;46.562;4.898;2023-04-24T01:03:22;12.20;92.70
7666;DHT22;3875;46.562;4.898;2023-04-24T01:05:49;12.20;92.70
7666;DHT22;3875;46.562;4.898;2023-04-24T01:08:16;12.20;92.60
7666;DHT22;3875;46.562;4.898;2023-04-24T01:10:42;12.20;92.60
7666;DHT22;3875;46.562;4.898;2023-04-24T01:13:09;12.20;92.60
7666;DHT22;3875;46.562;4.898;2023-04-24T01:15:35;12.20;92.60
7666;DHT22;3875;46.562;4.898;2023-04-24T01:18:01;12.10;92.70
7666;DHT22;3875;46.562;4.898;2023-04-24T01:20:26;12.20;92.70
7666;DHT22;3875;46.562;4.898;2023-04-24T01:22:54;12.10;92.70
7666;DHT22;3875;46.562;4.898;2023-04-24T01:25:22;12.10;92.80
7666;DHT22;3875;46.562;4.898;2023-04-24T01:27:48;12.10;92.80
7666;DHT22;3875;46.562;4.898;2023-04-24T01:30:14;12.00;93.10
7666;DHT22;3875;46.562;4.898;2023-04-24T01:32:40;12.00;93.20
7666;DHT22;3875;46.562;4.898;2023-04-24T01:35:10;12.00;93.30
7666;DHT22;3875;46.562;4.898;2023-04-24T01:37:36;12.00;93.40
7666;DHT22;3875;46.562;4.898;2023-04-24T01:40:06;12.00;93.40
7666;DHT22;3875;46.562;4.898;2023-04-24T01:42:32;12.00;93.50
7666;DHT22;3875;46.562;4.898;2023-04-24T01:44:58;12.00;93.40
7666;DHT22;3875;46.562;4.898;2023-04-24T01:47:25;12.00;93.40
7666;DHT22;3875;46.562;4.898;2023-04-24T01:49:51;12.00;93.40
7666;DHT22;3875;46.562;4.898;2023-04-24T01:52:17;12.00;93.30
7666;DHT22;3875;46.562;4.898;2023-04-24T01:54:44;12.00;93.20
7666;DHT22;3875;46.562;4.898;2023-04-24T01:57:10;12.10;93.20
7666;DHT22;3875;46.562;4.898;2023-04-24T01:59:36;12.00;93.10
7666;DHT22;3875;46.562;4.898;2023-04-24T02:02:02;12.00;93.10
7666;DHT22;3875;46.562;4.898;2023-04-24T02:04:28;12.00;93.10
7666;DHT22;3875;46.562;4.898;2023-04-24T02:06:54;12.00;93.10
7666;DHT22;3875;46.562;4.898;2023-04-24T02:09:20;11.90;93.30
7666;DHT22;3875;46.562;4.898;2023-04-24T02:11:46;11.90;93.50
7666;DHT22;3875;46.562;4.898;2023-04-24T02:14:11;11.90;93.50
7666;DHT22;3875;46.562;4.898;2023-04-24T02:16:37;11.90;93.60
7666;DHT22;3875;46.562;4.898;2023-04-24T02:19:03;11.80;93.70
7666;DHT22;3875;46.562;4.898;2023-04-24T02:21:29;11.90;93.60
7666;DHT22;3875;46.562;4.898;2023-04-24T02:23:56;11.90;93.50
7666;DHT22;3875;46.562;4.898;2023-04-24T02:26:22;11.90;93.50
7666;DHT22;3875;46.562;4.898;2023-04-24T02:28:47;11.90;93.50
7666;DHT22;3875;46.562;4.898;2023-04-24T02:31:13;11.90;93.60
7666;DHT22;3875;46.562;4.898;2023-04-24T02:33:39;11.90;93.60
7666;DHT22;3875;46.562;4.898;2023-04-24T02:36:04;11.80;93.70
7666;DHT22;3875;46.562;4.898;2023-04-24T02:38:30;11.80;93.70
7666;DHT22;3875;46.562;4.898;2023-04-24T02:40:55;11.80;93.60
7666;DHT22;3875;46.562;4.898;2023-04-24T02:43:21;11.80;93.50
7666;DHT22;3875;46.562;4.898;2023-04-24T02:45:47;11.70;93.60
7666;DHT22;3875;46.562;4.898;2023-04-24T02:48:12;11.70;93.70
7666;DHT22;3875;46.562;4.898;2023-04-24T02:50:38;11.70;93.70
7666;DHT22;3875;46.562;4.898;2023-04-24T02:53:04;11.70;93.70
7666;DHT22;3875;46.562;4.898;2023-04-24T02:55:29;11.70;93.50
7666;DHT22;3875;46.562;4.898;2023-04-24T02:57:56;11.70;93.40
7666;DHT22;3875;46.562;4.898;2023-04-24T03:00:21;11.70;93.40
7666;DHT22;3875;46.562;4.898;2023-04-24T03:02:47;11.70;93.40
7666;DHT22;3875;46.562;4.898;2023-04-24T03:05:13;11.70;93.20
7666;DHT22;3875;46.562;4.898;2023-04-24T03:07:39;11.60;93.30
7666;DHT22;3875;46.562;4.898;2023-04-24T03:10:05;11.60;93.20
7666;DHT22;3875;46.562;4.898;2023-04-24T03:12:31;11.60;93.20
7666;DHT22;3875;46.562;4.898;2023-04-24T03:14:57;11.60;93.40
7666;DHT22;3875;46.562;4.898;2023-04-24T03:17:22;11.60;93.40
7666;DHT22;3875;46.562;4.898;2023-04-24T03:19:48;11.60;93.40
7666;DHT22;3875;46.562;4.898;2023-04-24T03:22:14;11.60;93.40
7666;DHT22;3875;46.562;4.898;2023-04-24T03:24:39;11.70;93.30
7666;DHT22;3875;46.562;4.898;2023-04-24T03:27:05;11.70;93.20
7666;DHT22;3875;46.562;4.898;2023-04-24T03:29:31;11.70;93.30
7666;DHT22;3875;46.562;4.898;2023-04-24T03:31:57;11.70;93.20
7666;DHT22;3875;46.562;4.898;2023-04-24T03:34:22;11.70;93.30
7666;DHT22;3875;46.562;4.898;2023-04-24T03:36:48;11.70;93.40
7666;DHT22;3875;46.562;4.898;2023-04-24T03:39:14;11.60;93.40
7666;DHT22;3875;46.562;4.898;2023-04-24T03:41:39;11.60;93.40
7666;DHT22;3875;46.562;4.898;2023-04-24T03:44:05;11.60;93.30
7666;DHT22;3875;46.562;4.898;2023-04-24T03:46:31;11.60;93.40
7666;DHT22;3875;46.562;4.898;2023-04-24T03:48:56;11.60;93.30
7666;DHT22;3875;46.562;4.898;2023-04-24T03:51:22;11.50;92.90
7666;DHT22;3875;46.562;4.898;2023-04-24T03:53:48;11.40;92.50
7666;DHT22;3875;46.562;4.898;2023-04-24T03:56:14;11.40;92.80
7666;DHT22;3875;46.562;4.898;2023-04-24T03:58:40;11.30;92.20
7666;DHT22;3875;46.562;4.898;2023-04-24T04:01:05;11.20;92.40
7666;DHT22;3875;46.562;4.898;2023-04-24T04:03:31;11.30;92.60
7666;DHT22;3875;46.562;4.898;2023-04-24T04:05:57;11.30;92.40
7666;DHT22;3875;46.562;4.898;2023-04-24T04:08:23;11.20;92.00
7666;DHT22;3875;46.562;4.898;2023-04-24T04:10:49;11.20;91.70
7666;DHT22;3875;46.562;4.898;2023-04-24T04:13:14;11.10;92.00
7666;DHT22;3875;46.562;4.898;2023-04-24T04:15:40;11.10;92.20
7666;DHT22;3875;46.562;4.898;2023-04-24T04:18:06;11.10;92.20
7666;DHT22;3875;46.562;4.898;2023-04-24T04:20:31;11.00;92.10
7666;DHT22;3875;46.562;4.898;2023-04-24T04:22:57;11.00;92.40
7666;DHT22;3875;46.562;4.898;2023-04-24T04:25:23;10.90;92.70
7666;DHT22;3875;46.562;4.898;2023-04-24T04:27:48;10.90;92.80
7666;DHT22;3875;46.562;4.898;2023-04-24T04:30:14;10.90;92.90
7666;DHT22;3875;46.562;4.898;2023-04-24T04:32:40;10.80;93.20
7666;DHT22;3875;46.562;4.898;2023-04-24T04:35:06;10.80;93.40
7666;DHT22;3875;46.562;4.898;2023-04-24T04:37:33;10.80;93.40
7666;DHT22;3875;46.562;4.898;2023-04-24T04:39:59;10.80;93.40
7666;DHT22;3875;46.562;4.898;2023-04-24T04:42:26;10.90;93.40
7666;DHT22;3875;46.562;4.898;2023-04-24T04:44:53;10.90;93.40
7666;DHT22;3875;46.562;4.898;2023-04-24T04:47:21;10.90;93.50
7666;DHT22;3875;46.562;4.898;2023-04-24T04:49:48;11.00;93.30
7666;DHT22;3875;46.562;4.898;2023-04-24T04:52:14;11.10;92.90
7666;DHT22;3875;46.562;4.898;2023-04-24T04:54:42;11.00;92.80
7666;DHT22;3875;46.562;4.898;2023-04-24T04:57:07;11.00;92.60
7666;DHT22;3875;46.562;4.898;2023-04-24T04:59:33;11.00;92.00
7666;DHT22;3875;46.562;4.898;2023-04-24T05:01:59;11.00;92.10
7666;DHT22;3875;46.562;4.898;2023-04-24T05:04:25;11.00;92.40
7666;DHT22;3875;46.562;4.898;2023-04-24T05:06:50;11.10;92.30
7666;DHT22;3875;46.562;4.898;2023-04-24T05:09:16;11.10;92.40
7666;DHT22;3875;46.562;4.898;2023-04-24T05:11:42;11.20;92.10
7666;DHT22;3875;46.562;4.898;2023-04-24T05:14:07;11.20;92.00
7666;DHT22;3875;46.562;4.898;2023-04-24T05:16:33;11.20;92.10
7666;DHT22;3875;46.562;4.898;2023-04-24T05:18:59;11.20;92.00
7666;DHT22;3875;46.562;4.898;2023-04-24T05:21:24;11.20;92.00
7666;DHT22;3875;46.562;4.898;2023-04-24T05:23:50;11.30;92.00
7666;DHT22;3875;46.562;4.898;2023-04-24T05:26:16;11.20;91.90
7666;DHT22;3875;46.562;4.898;2023-04-24T05:28:43;11.20;91.80
7666;DHT22;3875;46.562;4.898;2023-04-24T05:31:08;11.20;91.80
7666;DHT22;3875;46.562;4.898;2023-04-24T05:33:34;11.20;91.70
7666;DHT22;3875;46.562;4.898;2023-04-24T05:35:59;11.20;91.90
7666;DHT22;3875;46.562;4.898;2023-04-24T05:38:25;11.20;91.90
7666;DHT22;3875;46.562;4.898;2023-04-24T05:40:51;11.30;91.70
7666;DHT22;3875;46.562;4.898;2023-04-24T05:43:16;11.30;91.60
7666;DHT22;3875;46.562;4.898;2023-04-24T05:45:42;11.30;91.20
7666;DHT22;3875;46.562;4.898;2023-04-24T05:48:08;11.30;91.40
7666;DHT22;3875;46.562;4.898;2023-04-24T05:50:33;11.30;91.40
7666;DHT22;3875;46.562;4.898;2023-04-24T05:52:59;11.30;91.30
7666;DHT22;3875;46.562;4.898;2023-04-24T05:55:25;11.30;91.30
7666;DHT22;3875;46.562;4.898;2023-04-24T05:57:51;11.20;91.40
7666;DHT22;3875;46.562;4.898;2023-04-24T06:00:17;11.20;91.70
7666;DHT22;3875;46.562;4.898;2023-04-24T06:02:44;11.20;91.70
7666;DHT22;3875;46.562;4.898;2023-04-24T06:05:10;11.40;91.90
7666;DHT22;3875;46.562;4.898;2023-04-24T06:07:37;11.50;91.60
7666;DHT22;3875;46.562;4.898;2023-04-24T06:10:02;11.70;91.40
7666;DHT22;3875;46.562;4.898;2023-04-24T06:12:28;11.90;91.50
7666;DHT22;3875;46.562;4.898;2023-04-24T06:14:54;12.20;91.10
7666;DHT22;3875;46.562;4.898;2023-04-24T06:17:21;12.10;89.70
7666;DHT22;3875;46.562;4.898;2023-04-24T06:19:46;12.00;89.70
7666;DHT22;3875;46.562;4.898;2023-04-24T06:22:12;12.00;90.10
7666;DHT22;3875;46.562;4.898;2023-04-24T06:24:39;12.10;90.20
7666;DHT22;3875;46.562;4.898;2023-04-24T06:27:05;12.20;90.30
7666;DHT22;3875;46.562;4.898;2023-04-24T06:29:31;12.30;90.40
7666;DHT22;3875;46.562;4.898;2023-04-24T06:31:57;12.40;90.40
7666;DHT22;3875;46.562;4.898;2023-04-24T06:34:22;12.50;89.80
7666;DHT22;3875;46.562;4.898;2023-04-24T06:36:48;12.50;89.40
7666;DHT22;3875;46.562;4.898;2023-04-24T06:39:14;12.40;88.90
7666;DHT22;3875;46.562;4.898;2023-04-24T06:41:40;12.30;89.30
7666;DHT22;3875;46.562;4.898;2023-04-24T06:44:06;12.30;89.50
7666;DHT22;3875;46.562;4.898;2023-04-24T06:46:31;12.30;89.50
7666;DHT22;3875;46.562;4.898;2023-04-24T06:48:57;12.10;89.30
7666;DHT22;3875;46.562;4.898;2023-04-24T06:51:24;12.10;89.70
7666;DHT22;3875;46.562;4.898;2023-04-24T06:53:50;12.00;89.50
7666;DHT22;3875;46.562;4.898;2023-04-24T06:56:16;12.00;89.70
7666;DHT22;3875;46.562;4.898;2023-04-24T06:58:42;11.90;89.80
7666;DHT22;3875;46.562;4.898;2023-04-24T07:01:08;11.80;89.80
7666;DHT22;3875;46.562;4.898;2023-04-24T07:03:33;11.90;90.10
7666;DHT22;3875;46.562;4.898;2023-04-24T07:05:59;11.80;90.20
7666;DHT22;3875;46.562;4.898;2023-04-24T07:08:24;11.90;90.20
7666;DHT22;3875;46.562;4.898;2023-04-24T07:10:50;12.00;90.20
7666;DHT22;3875;46.562;4.898;2023-04-24T07:13:16;11.90;89.60
7666;DHT22;3875;46.562;4.898;2023-04-24T07:15:43;11.90;89.50
7666;DHT22;3875;46.562;4.898;2023-04-24T07:18:09;11.90;89.80
7666;DHT22;3875;46.562;4.898;2023-04-24T07:20:34;11.90;88.90
7666;DHT22;3875;46.562;4.898;2023-04-24T07:23:00;11.90;89.70
7666;DHT22;3875;46.562;4.898;2023-04-24T07:25:26;12.10;89.70
7666;DHT22;3875;46.562;4.898;2023-04-24T07:27:53;12.20;89.30
7666;DHT22;3875;46.562;4.898;2023-04-24T07:30:19;12.30;89.10
7666;DHT22;3875;46.562;4.898;2023-04-24T07:32:45;12.30;88.00
7666;DHT22;3875;46.562;4.898;2023-04-24T07:35:10;12.20;88.10
7666;DHT22;3875;46.562;4.898;2023-04-24T07:37:36;12.20;88.00
7666;DHT22;3875;46.562;4.898;2023-04-24T07:40:02;12.30;88.10
7666;DHT22;3875;46.562;4.898;2023-04-24T07:42:28;12.20;86.30
7666;DHT22;3875;46.562;4.898;2023-04-24T07:44:55;12.10;87.00
7666;DHT22;3875;46.562;4.898;2023-04-24T07:47:21;12.00;87.50
7666;DHT22;3875;46.562;4.898;2023-04-24T07:49:47;12.10;87.50
7666;DHT22;3875;46.562;4.898;2023-04-24T07:52:13;12.10;87.10
7666;DHT22;3875;46.562;4.898;2023-04-24T07:54:38;12.20;87.20
7666;DHT22;3875;46.562;4.898;2023-04-24T07:57:04;12.20;86.40
7666;DHT22;3875;46.562;4.898;2023-04-24T07:59:31;12.30;86.40
7666;DHT22;3875;46.562;4.898;2023-04-24T08:01:57;12.50;86.70
7666;DHT22;3875;46.562;4.898;2023-04-24T08:04:23;12.80;85.10
7666;DHT22;3875;46.562;4.898;2023-04-24T08:06:48;13.10;84.90
7666;DHT22;3875;46.562;4.898;2023-04-24T08:09:14;13.20;84.20
7666;DHT22;3875;46.562;4.898;2023-04-24T08:11:39;13.30;83.10
7666;DHT22;3875;46.562;4.898;2023-04-24T08:14:05;13.40;83.90
7666;DHT22;3875;46.562;4.898;2023-04-24T08:16:32;13.30;81.70
7666;DHT22;3875;46.562;4.898;2023-04-24T08:18:58;13.40;82.00
7666;DHT22;3875;46.562;4.898;2023-04-24T08:21:24;13.90;83.30
7666;DHT22;3875;46.562;4.898;2023-04-24T08:23:52;14.10;81.40
7666;DHT22;3875;46.562;4.898;2023-04-24T08:26:18;14.10;80.90
7666;DHT22;3875;46.562;4.898;2023-04-24T08:28:43;13.90;81.40
7666;DHT22;3875;46.562;4.898;2023-04-24T08:31:09;13.80;81.50
7666;DHT22;3875;46.562;4.898;2023-04-24T08:33:35;13.50;81.50
7666;DHT22;3875;46.562;4.898;2023-04-24T08:36:03;13.20;82.20
7666;DHT22;3875;46.562;4.898;2023-04-24T08:38:29;13.10;83.30
7666;DHT22;3875;46.562;4.898;2023-04-24T08:40:57;13.00;83.70
7666;DHT22;3875;46.562;4.898;2023-04-24T08:43:23;13.00;83.70
7666;DHT22;3875;46.562;4.898;2023-04-24T08:45:50;13.00;84.00
7666;DHT22;3875;46.562;4.898;2023-04-24T08:48:16;13.10;84.30
7666;DHT22;3875;46.562;4.898;2023-04-24T08:50:43;13.20;84.10
7666;DHT22;3875;46.562;4.898;2023-04-24T08:53:10;13.20;83.90
7666;DHT22;3875;46.562;4.898;2023-04-24T08:55:37;13.20;83.20
7666;DHT22;3875;46.562;4.898;2023-04-24T08:58:03;13.10;83.70
7666;DHT22;3875;46.562;4.898;2023-04-24T09:00:30;13.00;83.70
7666;DHT22;3875;46.562;4.898;2023-04-24T09:02:56;13.00;84.30
7666;DHT22;3875;46.562;4.898;2023-04-24T09:05:22;12.90;84.40
7666;DHT22;3875;46.562;4.898;2023-04-24T09:07:56;13.00;84.70
7666;DHT22;3875;46.562;4.898;2023-04-24T09:10:23;13.10;84.90
7666;DHT22;3875;46.562;4.898;2023-04-24T09:12:52;13.10;84.50
7666;DHT22;3875;46.562;4.898;2023-04-24T09:15:20;13.20;84.60
7666;DHT22;3875;46.562;4.898;2023-04-24T09:17:46;13.40;84.70
7666;DHT22;3875;46.562;4.898;2023-04-24T09:20:12;13.50;83.60
7666;DHT22;3875;46.562;4.898;2023-04-24T09:22:38;13.80;83.60
7666;DHT22;3875;46.562;4.898;2023-04-24T09:25:06;14.20;82.60
7666;DHT22;3875;46.562;4.898;2023-04-24T09:27:33;14.30;81.00
7666;DHT22;3875;46.562;4.898;2023-04-24T09:29:59;14.70;79.80
7666;DHT22;3875;46.562;4.898;2023-04-24T09:32:25;14.50;78.90
7666;DHT22;3875;46.562;4.898;2023-04-24T09:35:11;14.10;77.50
7666;DHT22;3875;46.562;4.898;2023-04-24T09:37:42;13.70;77.20
7666;DHT22;3875;46.562;4.898;2023-04-24T09:40:08;13.40;79.50
7666;DHT22;3875;46.562;4.898;2023-04-24T09:42:36;13.90;80.70
7666;DHT22;3875;46.562;4.898;2023-04-24T09:45:02;14.50;78.60
7666;DHT22;3875;46.562;4.898;2023-04-24T09:47:27;14.50;76.60
7666;DHT22;3875;46.562;4.898;2023-04-24T09:50:12;14.10;76.40
7666;DHT22;3875;46.562;4.898;2023-04-24T09:55:45;14.00;77.00
7666;DHT22;3875;46.562;4.898;2023-04-24T09:58:15;14.10;76.70
7666;DHT22;3875;46.562;4.898;2023-04-24T10:00:40;14.40;75.50
7666;DHT22;3875;46.562;4.898;2023-04-24T10:03:06;15.00;74.70
7666;DHT22;3875;46.562;4.898;2023-04-24T10:05:34;15.40;71.50
7666;DHT22;3875;46.562;4.898;2023-04-24T10:08:10;15.80;69.30
7666;DHT22;3875;46.562;4.898;2023-04-24T10:10:44;16.00;70.90
7666;DHT22;3875;46.562;4.898;2023-04-24T10:13:11;16.40;72.40
7666;DHT22;3875;46.562;4.898;2023-04-24T10:15:38;16.40;71.40
7666;DHT22;3875;46.562;4.898;2023-04-24T10:18:04;16.20;71.50
7666;DHT22;3875;46.562;4.898;2023-04-24T10:20:32;16.00;71.70
7666;DHT22;3875;46.562;4.898;2023-04-24T10:22:59;15.30;71.90
7666;DHT22;3875;46.562;4.898;2023-04-24T10:25:30;15.00;72.60
7666;DHT22;3875;46.562;4.898;2023-04-24T10:27:56;14.70;73.90
7666;DHT22;3875;46.562;4.898;2023-04-24T10:30:27;15.00;73.60
7666;DHT22;3875;46.562;4.898;2023-04-24T10:32:52;15.10;73.10
7666;DHT22;3875;46.562;4.898;2023-04-24T10:35:18;15.30;73.80
7666;DHT22;3875;46.562;4.898;2023-04-24T10:37:56;15.10;73.30
7666;DHT22;3875;46.562;4.898;2023-04-24T10:40:31;15.00;73.30
7666;DHT22;3875;46.562;4.898;2023-04-24T10:42:58;14.80;73.20
7666;DHT22;3875;46.562;4.898;2023-04-24T10:45:25;14.50;73.50
7666;DHT22;3875;46.562;4.898;2023-04-24T10:48:09;14.50;74.80
7666;DHT22;3875;46.562;4.898;2023-04-24T10:50:52;14.70;73.40
7666;DHT22;3875;46.562;4.898;2023-04-24T10:53:22;14.90;72.60
7666;DHT22;3875;46.562;4.898;2023-04-24T10:58:23;16.20;67.90
7666;DHT22;3875;46.562;4.898;2023-04-24T11:00:59;16.30;65.60
7666;DHT22;3875;46.562;4.898;2023-04-24T11:03:33;16.10;67.80
7666;DHT22;3875;46.562;4.898;2023-04-24T11:06:05;16.20;67.50
7666;DHT22;3875;46.562;4.898;2023-04-24T11:08:44;16.00;66.00
7666;DHT22;3875;46.562;4.898;2023-04-24T11:11:15;15.80;64.80
7666;DHT22;3875;46.562;4.898;2023-04-24T11:24:49;16.70;65.10
7666;DHT22;3875;46.562;4.898;2023-04-24T11:27:20;17.00;61.20
7666;DHT22;3875;46.562;4.898;2023-04-24T11:29:58;17.10;62.70
7666;DHT22;3875;46.562;4.898;2023-04-24T11:35:13;17.40;64.50
7666;DHT22;3875;46.562;4.898;2023-04-24T11:37:42;17.40;62.00
7666;DHT22;3875;46.562;4.898;2023-04-24T11:40:12;17.90;62.40
7666;DHT22;3875;46.562;4.898;2023-04-24T11:42:49;18.70;61.80
7666;DHT22;3875;46.562;4.898;2023-04-24T11:45:23;19.20;61.60
7666;DHT22;3875;46.562;4.898;2023-04-24T11:47:49;19.70;60.30
7666;DHT22;3875;46.562;4.898;2023-04-24T11:50:17;19.80;59.80
7666;DHT22;3875;46.562;4.898;2023-04-24T11:52:45;19.30;59.30
7666;DHT22;3875;46.562;4.898;2023-04-24T11:57:46;18.10;59.20
7666;DHT22;3875;46.562;4.898;2023-04-24T12:00:17;17.20;59.20
7666;DHT22;3875;46.562;4.898;2023-04-24T12:02:43;16.60;62.30
7666;DHT22;3875;46.562;4.898;2023-04-24T12:05:12;16.30;63.00
7666;DHT22;3875;46.562;4.898;2023-04-24T12:07:44;15.80;64.00
7666;DHT22;3875;46.562;4.898;2023-04-24T12:10:09;15.30;63.90
7666;DHT22;3875;46.562;4.898;2023-04-24T12:12:35;15.20;64.70
7666;DHT22;3875;46.562;4.898;2023-04-24T12:15:05;15.30;65.40
7666;DHT22;3875;46.562;4.898;2023-04-24T12:17:33;15.70;66.30
7666;DHT22;3875;46.562;4.898;2023-04-24T12:20:00;16.00;64.50
7666;DHT22;3875;46.562;4.898;2023-04-24T12:22:26;16.20;63.80
7666;DHT22;3875;46.562;4.898;2023-04-24T12:25:01;16.50;64.50
7666;DHT22;3875;46.562;4.898;2023-04-24T12:27:30;16.60;63.90
7666;DHT22;3875;46.562;4.898;2023-04-24T12:29:57;16.50;63.60
7666;DHT22;3875;46.562;4.898;2023-04-24T12:32:23;16.30;62.90
7666;DHT22;3875;46.562;4.898;2023-04-24T12:34:51;16.30;63.80
7666;DHT22;3875;46.562;4.898;2023-04-24T12:37:20;16.20;63.50
7666;DHT22;3875;46.562;4.898;2023-04-24T12:40:06;16.10;64.00
7666;DHT22;3875;46.562;4.898;2023-04-24T12:42:32;16.00;64.30
7666;DHT22;3875;46.562;4.898;2023-04-24T12:45:06;16.10;64.00
7666;DHT22;3875;46.562;4.898;2023-04-24T12:47:32;16.10;63.80
7666;DHT22;3875;46.562;4.898;2023-04-24T12:49:59;16.00;64.20
7666;DHT22;3875;46.562;4.898;2023-04-24T12:52:26;15.90;63.70
7666;DHT22;3875;46.562;4.898;2023-04-24T12:54:56;15.90;64.80
7666;DHT22;3875;46.562;4.898;2023-04-24T12:57:24;15.90;64.40
7666;DHT22;3875;46.562;4.898;2023-04-24T12:59:56;15.90;65.00
7666;DHT22;3875;46.562;4.898;2023-04-24T13:02:23;15.80;64.10
7666;DHT22;3875;46.562;4.898;2023-04-24T13:04:49;15.80;64.60
7666;DHT22;3875;46.562;4.898;2023-04-24T13:07:15;15.80;64.10
7666;DHT22;3875;46.562;4.898;2023-04-24T13:09:42;15.90;64.40
7666;DHT22;3875;46.562;4.898;2023-04-24T13:12:08;15.90;63.50
7666;DHT22;3875;46.562;4.898;2023-04-24T13:14:34;16.10;64.70
7666;DHT22;3875;46.562;4.898;2023-04-24T13:17:00;16.10;64.00
7666;DHT22;3875;46.562;4.898;2023-04-24T13:19:27;16.00;64.80
7666;DHT22;3875;46.562;4.898;2023-04-24T13:21:56;16.20;65.90
7666;DHT22;3875;46.562;4.898;2023-04-24T13:24:25;16.10;65.70
7666;DHT22;3875;46.562;4.898;2023-04-24T13:26:52;16.20;67.40
7666;DHT22;3875;46.562;4.898;2023-04-24T13:29:18;16.30;66.70
7666;DHT22;3875;46.562;4.898;2023-04-24T13:31:44;16.20;67.70
7666;DHT22;3875;46.562;4.898;2023-04-24T13:34:10;16.20;66.90
7666;DHT22;3875;46.562;4.898;2023-04-24T13:36:36;16.30;66.10
7666;DHT22;3875;46.562;4.898;2023-04-24T13:39:02;16.60;67.50
7666;DHT22;3875;46.562;4.898;2023-04-24T13:41:33;16.90;65.90
7666;DHT22;3875;46.562;4.898;2023-04-24T13:43:58;17.20;66.50
7666;DHT22;3875;46.562;4.898;2023-04-24T13:46:24;17.50;66.20
7666;DHT22;3875;46.562;4.898;2023-04-24T13:48:50;18.00;66.80
7666;DHT22;3875;46.562;4.898;2023-04-24T13:51:18;18.60;64.10
7666;DHT22;3875;46.562;4.898;2023-04-24T13:53:44;19.10;63.70
7666;DHT22;3875;46.562;4.898;2023-04-24T13:56:10;19.10;62.60
7666;DHT22;3875;46.562;4.898;2023-04-24T13:58:36;19.10;62.30
7666;DHT22;3875;46.562;4.898;2023-04-24T14:01:04;19.20;62.40
7666;DHT22;3875;46.562;4.898;2023-04-24T14:03:30;19.10;60.70
7666;DHT22;3875;46.562;4.898;2023-04-24T14:05:56;19.10;60.60
7666;DHT22;3875;46.562;4.898;2023-04-24T14:08:22;19.10;61.00
7666;DHT22;3875;46.562;4.898;2023-04-24T14:10:47;19.00;60.90
7666;DHT22;3875;46.562;4.898;2023-04-24T14:13:13;18.50;59.60
7666;DHT22;3875;46.562;4.898;2023-04-24T14:15:39;17.80;61.30
7666;DHT22;3875;46.562;4.898;2023-04-24T14:18:05;17.50;62.30
7666;DHT22;3875;46.562;4.898;2023-04-24T14:20:31;17.40;63.40
7666;DHT22;3875;46.562;4.898;2023-04-24T14:22:57;17.70;64.20
7666;DHT22;3875;46.562;4.898;2023-04-24T14:25:26;17.90;62.80
7666;DHT22;3875;46.562;4.898;2023-04-24T14:27:51;18.20;62.30
7666;DHT22;3875;46.562;4.898;2023-04-24T14:30:18;18.40;63.00
7666;DHT22;3875;46.562;4.898;2023-04-24T14:32:43;18.90;63.10
7666;DHT22;3875;46.562;4.898;2023-04-24T14:35:09;18.70;60.90
7666;DHT22;3875;46.562;4.898;2023-04-24T14:37:36;18.70;60.20
7666;DHT22;3875;46.562;4.898;2023-04-24T14:40:02;18.50;60.50
7666;DHT22;3875;46.562;4.898;2023-04-24T14:42:30;18.20;60.40
7666;DHT22;3875;46.562;4.898;2023-04-24T14:44:55;18.20;61.90
7666;DHT22;3875;46.562;4.898;2023-04-24T14:47:21;18.20;61.90
7666;DHT22;3875;46.562;4.898;2023-04-24T14:49:48;18.20;62.60
7666;DHT22;3875;46.562;4.898;2023-04-24T14:52:13;18.10;62.50
7666;DHT22;3875;46.562;4.898;2023-04-24T14:54:39;17.90;61.40
7666;DHT22;3875;46.562;4.898;2023-04-24T14:57:05;17.60;61.70
7666;DHT22;3875;46.562;4.898;2023-04-24T14:59:31;17.60;62.60
7666;DHT22;3875;46.562;4.898;2023-04-24T15:01:57;17.80;61.50
7666;DHT22;3875;46.562;4.898;2023-04-24T15:07:51;17.10;63.00
7666;DHT22;3875;46.562;4.898;2023-04-24T15:13:35;17.10;63.80
7666;DHT22;3875;46.562;4.898;2023-04-24T15:16:01;17.10;63.40
7666;DHT22;3875;46.562;4.898;2023-04-24T15:18:27;17.00;62.80
7666;DHT22;3875;46.562;4.898;2023-04-24T15:20:54;16.90;63.70
7666;DHT22;3875;46.562;4.898;2023-04-24T15:23:20;16.90;63.00
7666;DHT22;3875;46.562;4.898;2023-04-24T15:25:46;16.70;62.70
7666;DHT22;3875;46.562;4.898;2023-04-24T15:28:12;16.60;63.90
7666;DHT22;3875;46.562;4.898;2023-04-24T15:30:38;16.60;63.80
7666;DHT22;3875;46.562;4.898;2023-04-24T15:33:03;16.50;64.00
7666;DHT22;3875;46.562;4.898;2023-04-24T15:35:29;16.60;64.40
7666;DHT22;3875;46.562;4.898;2023-04-24T15:37:55;16.80;64.50
7666;DHT22;3875;46.562;4.898;2023-04-24T15:40:21;16.70;64.00
7666;DHT22;3875;46.562;4.898;2023-04-24T15:42:47;16.90;64.50
7666;DHT22;3875;46.562;4.898;2023-04-24T15:45:13;17.20;64.60
7666;DHT22;3875;46.562;4.898;2023-04-24T15:47:38;17.30;63.80
7666;DHT22;3875;46.562;4.898;2023-04-24T15:50:05;17.20;63.80
7666;DHT22;3875;46.562;4.898;2023-04-24T15:52:30;17.00;63.20
7666;DHT22;3875;46.562;4.898;2023-04-24T15:54:56;17.00;63.30
7666;DHT22;3875;46.562;4.898;2023-04-24T15:57:22;16.90;63.40
7666;DHT22;3875;46.562;4.898;2023-04-24T15:59:48;17.10;64.60
7666;DHT22;3875;46.562;4.898;2023-04-24T16:02:14;17.30;63.60
7666;DHT22;3875;46.562;4.898;2023-04-24T16:04:47;17.20;61.80
7666;DHT22;3875;46.562;4.898;2023-04-24T16:07:14;17.30;61.80
7666;DHT22;3875;46.562;4.898;2023-04-24T16:09:40;17.40;62.60
7666;DHT22;3875;46.562;4.898;2023-04-24T16:12:06;17.50;62.30
7666;DHT22;3875;46.562;4.898;2023-04-24T16:14:32;17.20;61.80
7666;DHT22;3875;46.562;4.898;2023-04-24T16:16:58;17.20;62.40
7666;DHT22;3875;46.562;4.898;2023-04-24T16:19:23;17.30;61.40
7666;DHT22;3875;46.562;4.898;2023-04-24T16:21:49;17.50;60.70
7666;DHT22;3875;46.562;4.898;2023-04-24T16:24:16;17.30;62.10
7666;DHT22;3875;46.562;4.898;2023-04-24T16:26:41;17.40;61.50
7666;DHT22;3875;46.562;4.898;2023-04-24T16:29:07;17.60;62.30